Bookmark and Share
Track history (hours):
 

M/T Vemaoil Xi

Last reported at 2014-Apr-24 10:33 UTC. Time now 2014-Apr-24 11:22 UTC.
Position N 35°50' E 014°36'.

Length 105 m; draft 6.7 m.

Type: Tanker. MMSI: 215631000.

NotesDate/timePositionNaut miles runAvg speedWind from/ knotsBaromVisibWave heightAir tempDewpointWater temp
2014-Apr-24 10:33N 35°50' E 014°36'10 0.2
2014-Apr-22 16:16N 35°55' E 014°47'0 0.1
2014-Apr-22 15:33N 35°55' E 014°47'0 0.0
2014-Apr-22 14:33N 35°55' E 014°47'2 0.3
2014-Apr-22 09:18N 35°53' E 014°47'0 0.2
2014-Apr-22 08:17N 35°53' E 014°47'0 0.2
2014-Apr-22 07:06N 35°53' E 014°47'0 0.1
2014-Apr-22 06:27N 35°53' E 014°47'0 0.0
2014-Apr-22 05:33N 35°53' E 014°47'0 0.0
2014-Apr-22 04:29N 35°53' E 014°47'0 0.0
2014-Apr-22 03:33N 35°53' E 014°47'0 0.0
2014-Apr-22 02:33N 35°53' E 014°47'0 0.2
2014-Apr-22 01:33N 35°53' E 014°47'0 0.0
2014-Apr-22 00:33N 35°53' E 014°47'5 5.3
2014-Apr-21 23:33N 35°50' E 014°41'7 6.7
2014-Apr-21 22:33N 35°49' E 014°33'0 0.4
2014-Apr-21 21:32N 35°49' E 014°33'0 0.0
2014-Apr-21 17:33N 35°49' E 014°33'0 0.0
2014-Apr-21 16:33N 35°49' E 014°33'0 0.0
2014-Apr-21 15:11N 35°49' E 014°33'0 0.0
2014-Apr-21 14:33N 35°49' E 014°33'0 0.0
2014-Apr-21 13:33N 35°49' E 014°33'0 0.0
2014-Apr-21 12:28N 35°49' E 014°33'0 0.0
2014-Apr-21 11:15N 35°49' E 014°33'2 0.2
2014-Apr-20 23:11N 35°49' E 014°35'0 0.0
2014-Apr-20 22:03N 35°49' E 014°35'0 0.0
2014-Apr-20 21:33N 35°49' E 014°35'0 0.0
2014-Apr-20 20:33N 35°49' E 014°35'0 0.0
2014-Apr-20 19:29N 35°49' E 014°35'0 0.1
2014-Apr-20 18:33N 35°49' E 014°35'0 0.0
2014-Apr-20 17:22N 35°49' E 014°35'0 0.0
2014-Apr-20 12:24N 35°49' E 014°35'2 0.1
2014-Apr-20 01:18N 35°51' E 014°36'0 0.0
2014-Apr-20 00:29N 35°51' E 014°36'0 0.3
2014-Apr-19 23:33N 35°50' E 014°36'2 0.9
2014-Apr-19 21:03N 35°50' E 014°33'  

Dump ship's entire track history

sailing weather and tide predictions

M/T Vemaoil Xi — 9HWD7 — position and weather